Time;durP1;ratioP1;P1;durP2;ratioP2;P2;SDS_P1;SDS_P2;PMS_P1;PMS_P2;Temp;Humidity;BMP_temperature;BMP_pressure;BME280_temperature;BME280_humidity;BME280_pressure;Samples;Min_cycle;Max_cycle;Signal;HPM_P1;HPM_P2
2021/08/15 00:00:06;;;;;;;;;;;17.80;91.20;;;17.71;80.49;100712.59;5013215;28;19983;-82
2021/08/15 00:02:39;;;;;;;;;;;17.70;91.40;;;17.69;80.59;100713.91;5031095;28;19929;-82
2021/08/15 00:05:08;;;;;;;;;;;17.70;91.40;;;17.67;80.47;100708.63;5031081;28;20007;-82
2021/08/15 00:07:37;;;;;;;;;;;17.70;91.30;;;17.66;80.72;100708.84;5030583;28;19929;-82
2021/08/15 00:10:05;;;;;;;;;;;17.70;91.50;;;17.64;80.55;100708.25;5025317;28;20012;-82
2021/08/15 00:12:32;;;;;;;;;;;17.60;91.30;;;17.62;80.56;100704.88;5015373;28;19992;-82
2021/08/15 00:14:59;;;;;;;;;;;17.70;91.50;;;17.61;80.49;100703.16;5011272;28;20382;-82
2021/08/15 00:17:26;;;;;;;;;;;17.60;91.40;;;17.58;80.70;100712.72;5023274;28;20016;-82
2021/08/15 00:19:53;;;;;;;;;;;17.60;91.50;;;17.56;80.82;100701.94;5030738;28;20390;-82
2021/08/15 00:22:20;;;;;;;;;;;17.60;91.50;;;17.56;80.80;100704.69;5030879;28;20027;-82
2021/08/15 00:24:49;;;;;;;;;;;17.60;91.80;;;17.54;80.88;100704.09;5030732;28;20023;-82
2021/08/15 00:27:16;;;;;;;;;;;17.60;91.80;;;17.53;81.08;100699.63;5030308;28;19964;-82
2021/08/15 00:29:43;;;;;;;;;;;17.60;91.90;;;17.53;80.92;100698.81;5020703;23;19995;-83
2021/08/15 00:32:10;;;;;;;;;;;17.50;91.80;;;17.49;80.72;100692.91;5049956;28;20372;-83
2021/08/15 00:34:37;;;;;;;;;;;17.50;91.80;;;17.47;80.83;100695.03;5050639;28;20027;-83
2021/08/15 00:37:04;;;;;;;;;;;17.50;91.80;;;17.48;80.84;100690.41;5049610;28;19967;-83
2021/08/15 00:39:31;;;;;;;;;;;17.50;91.80;;;17.46;80.88;100681.50;5050381;28;19929;-82
2021/08/15 00:41:59;;;;;;;;;;;17.50;91.80;;;17.42;80.91;100683.91;5047634;28;20015;-82
2021/08/15 00:44:26;;;;;;;;;;;17.50;91.80;;;17.41;80.96;100679.44;5027795;28;20023;-83
2021/08/15 00:46:54;;;;;;;;;;;17.50;91.90;;;17.39;80.87;100678.84;5010290;28;20425;-82
2021/08/15 00:49:21;;;;;;;;;;;17.50;91.90;;;17.39;80.75;100676.09;5017121;28;20384;-82
2021/08/15 00:51:48;;;;;;;;;;;17.40;91.80;;;17.36;80.98;100677.38;5030440;28;19968;-82
2021/08/15 00:54:15;;;;;;;;;;;17.50;92.00;;;17.35;80.84;100678.44;5018742;28;19929;-82
2021/08/15 00:56:42;;;;;;;;;;;17.40;91.90;;;17.37;81.09;100675.47;5008874;28;20372;-82
2021/08/15 00:59:11;;;;;;;;;;;17.40;91.90;;;17.34;80.89;100668.53;5010293;28;20010;-83
2021/08/15 01:01:38;;;;;;;;;;;17.40;92.00;;;17.33;80.86;100671.50;5011547;28;20027;-82
2021/08/15 01:04:06;;;;;;;;;;;17.40;91.90;;;17.32;81.12;100669.78;5029031;28;20055;-83
2021/08/15 01:06:33;;;;;;;;;;;17.40;92.10;;;17.30;81.10;100666.44;5028057;28;19936;-82
2021/08/15 01:09:02;;;;;;;;;;;17.40;92.10;;;17.29;81.22;100664.75;5029827;28;19929;-83
2021/08/15 01:11:31;;;;;;;;;;;17.40;92.10;;;17.27;81.08;100659.47;5029830;28;20020;-82
2021/08/15 01:13:58;;;;;;;;;;;17.40;92.00;;;17.27;81.26;100651.22;5012380;28;19956;-82
2021/08/15 01:16:26;;;;;;;;;;;17.30;92.10;;;17.28;81.03;100646.56;5009989;28;19929;-83
2021/08/15 01:18:53;;;;;;;;;;;17.30;92.00;;;17.27;80.90;100645.72;5010161;28;20346;-82
2021/08/15 01:21:20;;;;;;;;;;;17.30;92.00;;;17.25;81.30;100636.84;5010114;28;20021;-83
2021/08/15 01:23:47;;;;;;;;;;;17.30;92.10;;;17.24;81.15;100642.56;5010055;28;20445;-82
2021/08/15 01:26:18;;;;;;;;;;;17.30;92.20;;;17.24;81.30;100637.06;5009865;28;20017;-83
2021/08/15 01:28:46;;;;;;;;;;;17.30;92.40;;;17.22;81.45;100636.47;5009920;28;20011;-82
2021/08/15 01:31:14;;;;;;;;;;;17.30;92.50;;;17.21;81.51;100641.13;5047778;28;20090;-83
2021/08/15 01:33:42;;;;;;;;;;;17.30;92.60;;;17.23;81.29;100632.63;5049608;28;19944;-82
2021/08/15 01:36:11;;;;;;;;;;;17.30;92.40;;;17.20;81.28;100631.19;5018863;28;20364;-82
2021/08/15 01:38:40;;;;;;;;;;;17.30;92.40;;;17.18;81.47;100625.06;5029250;28;20028;-83
2021/08/15 01:41:08;;;;;;;;;;;17.30;92.60;;;17.17;81.37;100634.38;5029357;28;20302;-82
2021/08/15 01:43:49;;;;;;;;;;;17.20;92.40;;;17.15;81.30;100631.00;4997948;28;19929;-83
2021/08/15 01:46:16;;;;;;;;;;;17.20;92.30;;;17.14;81.41;100626.59;5009651;28;19929;-82
2021/08/15 01:48:43;;;;;;;;;;;17.20;92.20;;;17.13;81.36;100625.72;5010031;28;20044;-82
2021/08/15 01:51:10;;;;;;;;;;;17.20;92.20;;;17.12;81.18;100621.31;5009632;28;20295;-83
2021/08/15 01:53:37;;;;;;;;;;;17.20;92.10;;;17.11;81.28;100624.28;5009724;28;19965;-82
2021/08/15 01:56:05;;;;;;;;;;;17.20;92.20;;;17.10;81.53;100617.94;5009461;28;19925;-82
2021/08/15 01:58:32;;;;;;;;;;;17.20;92.40;;;17.09;81.39;100615.41;5009470;28;19929;-82
2021/08/15 02:01:01;;;;;;;;;;;17.10;92.40;;;17.07;81.36;100612.88;5009567;28;19968;-83
2021/08/15 02:03:28;;;;;;;;;;;17.10;92.50;;;17.05;81.47;100614.19;5009406;28;19931;-82
2021/08/15 02:05:55;;;;;;;;;;;17.10;92.50;;;17.03;81.24;100613.56;5026151;28;19952;-82
2021/08/15 02:08:22;;;;;;;;;;;17.10;92.40;;;17.02;81.44;100604.50;5028936;28;19929;-82
2021/08/15 02:10:50;;;;;;;;;;;17.10;92.50;;;17.03;81.56;100611.66;5028929;28;19925;-82
2021/08/15 02:13:17;;;;;;;;;;;17.10;92.70;;;17.00;81.51;100612.97;5028308;28;19933;-83
2021/08/15 02:15:44;;;;;;;;;;;17.10;92.60;;;17.01;81.59;100608.28;5028876;28;19975;-82
2021/08/15 02:18:12;;;;;;;;;;;17.10;92.60;;;17.00;81.80;100606.59;5028613;28;19929;-83
2021/08/15 02:20:40;;;;;;;;;;;17.10;92.80;;;16.98;81.57;100604.09;5028911;28;19925;-83
2021/08/15 02:23:07;;;;;;;;;;;17.10;92.70;;;16.97;81.55;100607.91;5029023;28;19929;-83
2021/08/15 02:25:34;;;;;;;;;;;17.00;92.50;;;16.93;81.32;100601.16;5029144;28;20421;-83
2021/08/15 02:28:02;;;;;;;;;;;17.00;92.50;;;16.95;81.38;100606.44;5028558;28;19929;-82
2021/08/15 02:30:29;;;;;;;;;;;17.00;92.50;;;16.93;81.32;100600.34;5028840;28;19933;-82
2021/08/15 02:32:56;;;;;;;;;;;17.00;92.50;;;16.90;81.65;100606.28;5028948;28;19935;-83
2021/08/15 02:35:25;;;;;;;;;;;17.00;92.60;;;16.89;81.58;100607.34;5028753;28;20359;-83
2021/08/15 02:37:54;;;;;;;;;;;17.00;92.50;;;16.88;81.82;100597.41;5026863;28;20020;-83
2021/08/15 02:40:22;;;;;;;;;;;17.00;92.80;;;16.89;81.53;100593.59;5028636;28;19925;-83
2021/08/15 02:42:51;;;;;;;;;;;17.00;92.70;;;16.88;81.58;100586.41;5013854;28;19936;-82
2021/08/15 02:45:19;;;;;;;;;;;17.00;92.60;;;16.87;81.50;100579.22;5008856;28;20023;-83
2021/08/15 02:47:46;;;;;;;;;;;16.90;92.70;;;16.85;81.53;100579.47;5023350;28;20382;-82
2021/08/15 02:50:15;;;;;;;;;;;16.90;92.70;;;16.84;81.77;100575.03;5028666;28;20298;-83
2021/08/15 02:52:44;;;;;;;;;;;16.90;92.90;;;16.84;81.34;100571.44;5028716;28;20047;-82
2021/08/15 02:55:12;;;;;;;;;;;16.90;92.70;;;16.84;81.37;100575.03;5028844;28;19944;-83
2021/08/15 02:57:41;;;;;;;;;;;16.80;92.60;;;16.81;81.30;100567.19;5028239;28;19969;-83
2021/08/15 03:00:11;;;;;;;;;;;16.90;92.70;;;16.78;81.29;100567.66;5030195;28;19933;-82
2021/08/15 03:02:38;;;;;;;;;;;16.80;92.60;;;16.78;81.25;100565.72;5031710;28;20467;-82
2021/08/15 03:05:06;;;;;;;;;;;16.80;92.60;;;16.77;81.17;100561.31;5032264;28;19935;-83
2021/08/15 03:07:33;;;;;;;;;;;16.80;92.60;;;16.73;81.36;100551.81;5028894;28;20024;-82
2021/08/15 03:10:02;;;;;;;;;;;16.70;92.80;;;16.73;81.04;100550.97;5012229;28;19987;-83
2021/08/15 03:12:29;;;;;;;;;;;16.70;92.70;;;16.72;81.20;100561.13;5012264;28;19929;-82
2021/08/15 03:14:56;;;;;;;;;;;16.70;92.70;;;16.70;81.29;100555.03;5012249;28;20039;-83
2021/08/15 03:17:23;;;;;;;;;;;16.70;92.80;;;16.70;81.51;100557.78;5011922;28;20390;-82
2021/08/15 03:19:50;;;;;;;;;;;16.70;92.80;;;16.70;81.50;100543.22;5011948;28;20017;-83
2021/08/15 03:22:17;;;;;;;;;;;16.70;92.80;;;16.69;81.35;100542.34;5012171;28;19930;-83
2021/08/15 03:24:44;;;;;;;;;;;16.70;92.90;;;16.68;81.54;100543.41;5012124;28;19926;-83
2021/08/15 03:27:12;;;;;;;;;;;16.70;93.00;;;16.68;81.83;100546.16;5011843;28;20023;-83
2021/08/15 03:29:39;;;;;;;;;;;16.70;93.10;;;16.67;81.95;100541.72;5012093;28;20021;-83
2021/08/15 03:32:07;;;;;;;;;;;16.70;93.20;;;16.67;82.09;100532.66;5012148;28;19965;-83
2021/08/15 03:34:34;;;;;;;;;;;16.80;93.40;;;16.67;82.53;100533.47;5011982;28;19932;-82
2021/08/15 03:37:01;;;;;;;;;;;16.80;93.40;;;16.70;82.78;100534.97;5020463;28;20040;-83
2021/08/15 03:39:29;;;;;;;;;;;16.90;93.80;;;16.71;83.08;100531.13;5011886;28;19933;-83
2021/08/15 03:41:58;;;;;;;;;;;16.90;93.80;;;16.72;83.53;100533.66;4994107;28;19965;-83
2021/08/15 03:44:28;;;;;;;;;;;17.00;93.90;;;16.73;83.67;100529.81;5011755;28;20311;-83
2021/08/15 03:46:56;;;;;;;;;;;17.00;94.10;;;16.77;83.90;100521.97;5011302;28;19960;-83
2021/08/15 03:49:24;;;;;;;;;;;17.10;94.10;;;16.78;84.11;100521.75;4993795;28;20016;-83
2021/08/15 03:51:52;;;;;;;;;;;17.10;94.20;;;16.81;84.15;100521.31;5016159;28;19925;-83
2021/08/15 03:54:20;;;;;;;;;;;17.20;94.20;;;16.83;84.62;100517.53;5030995;28;19929;-83
2021/08/15 03:56:48;;;;;;;;;;;17.30;94.20;;;16.85;84.67;100509.88;5013112;28;19929;-83
2021/08/15 03:59:16;;;;;;;;;;;17.30;94.30;;;16.87;84.74;100505.88;5031158;28;19929;-83
2021/08/15 04:01:44;;;;;;;;;;;17.40;94.20;;;16.89;85.26;100506.47;5031310;28;20052;-83
2021/08/15 04:04:11;;;;;;;;;;;17.40;94.40;;;16.90;85.23;100507.31;5031020;28;19931;-83
2021/08/15 04:06:38;;;;;;;;;;;17.40;94.10;;;16.92;85.16;100506.00;5030311;28;20051;-83
2021/08/15 04:09:06;;;;;;;;;;;17.40;94.30;;;16.95;85.34;100507.47;5030991;28;19960;-83
2021/08/15 04:11:33;;;;;;;;;;;17.50;94.40;;;16.94;85.39;100509.38;5011797;28;20416;-83
2021/08/15 04:14:00;;;;;;;;;;;17.50;94.40;;;16.95;85.38;100507.47;5011420;28;20033;-83
2021/08/15 04:16:27;;;;;;;;;;;17.50;94.30;;;16.98;85.49;100515.25;5026773;28;20468;-83
2021/08/15 04:18:56;;;;;;;;;;;17.50;94.30;;;17.00;85.61;100510.38;5030734;28;19935;-83
2021/08/15 04:21:24;;;;;;;;;;;17.60;94.10;;;17.02;85.40;100508.25;5030756;28;19929;-83
2021/08/15 04:23:51;;;;;;;;;;;17.60;94.00;;;17.02;85.67;100516.50;5029351;28;20705;-83
2021/08/15 04:26:19;;;;;;;;;;;17.60;94.00;;;17.02;85.56;100505.50;5028509;28;19933;-83
2021/08/15 04:28:46;;;;;;;;;;;17.60;93.90;;;17.04;85.68;100513.50;5029734;28;20028;-83
2021/08/15 04:31:14;;;;;;;;;;;17.60;93.80;;;17.05;85.75;100520.69;5029995;28;20066;-83
2021/08/15 04:33:41;;;;;;;;;;;17.70;94.00;;;17.06;85.80;100514.97;5027960;28;19936;-83
2021/08/15 04:36:09;;;;;;;;;;;17.70;94.00;;;17.08;86.02;100515.59;5029571;28;19933;-83
2021/08/15 04:38:36;;;;;;;;;;;17.70;93.80;;;17.09;85.83;100511.75;5028989;28;20020;-83
2021/08/15 04:41:03;;;;;;;;;;;17.80;93.60;;;17.11;85.74;100508.78;5029999;28;19975;-84
2021/08/15 04:43:34;;;;;;;;;;;17.80;93.50;;;17.13;86.13;100517.63;5011268;28;19935;-87
2021/08/15 04:46:02;;;;;;;;;;;17.90;93.50;;;17.15;86.10;100516.38;5029276;28;20350;-85
2021/08/15 04:48:29;;;;;;;;;;;17.90;93.30;;;17.19;85.97;100506.59;5028955;28;19933;-85
2021/08/15 04:50:57;;;;;;;;;;;18.00;93.10;;;17.19;86.20;100517.59;5030226;28;20016;-85
2021/08/15 04:53:27;;;;;;;;;;;18.10;93.00;;;17.23;86.31;100522.59;5012292;28;19935;-86
2021/08/15 04:55:54;;;;;;;;;;;18.10;92.80;;;17.25;86.12;100520.47;5029914;28;20019;-87
2021/08/15 04:58:21;;;;;;;;;;;18.20;92.60;;;17.28;86.39;100520.03;5011116;28;19929;-89
2021/08/15 05:00:48;;;;;;;;;;;18.20;92.40;;;17.30;86.26;100512.38;5029274;28;19935;-89
2021/08/15 05:03:16;;;;;;;;;;;18.30;92.50;;;17.32;86.48;100505.56;5012223;28;20020;-89
2021/08/15 05:05:43;;;;;;;;;;;18.30;92.10;;;17.35;86.27;100509.78;5026715;28;20401;-87
2021/08/15 05:08:10;;;;;;;;;;;18.40;91.60;;;17.38;86.51;100510.19;5029457;28;19925;-87
2021/08/15 05:10:41;;;;;;;;;;;18.50;91.40;;;17.44;86.69;100513.91;5029892;28;19999;-87
2021/08/15 05:13:08;;;;;;;;;;;18.60;91.20;;;17.44;86.61;100508.41;5029771;28;19957;-87
2021/08/15 05:15:35;;;;;;;;;;;18.70;91.30;;;17.47;86.74;100512.59;5012219;28;20004;-87
2021/08/15 05:18:03;;;;;;;;;;;18.70;91.30;;;17.51;86.85;100511.91;4991113;28;19988;-89
2021/08/15 05:20:30;;;;;;;;;;;18.80;90.90;;;17.55;87.19;100520.53;5008915;28;20428;-88
2021/08/15 05:22:58;;;;;;;;;;;18.90;90.70;;;17.59;87.62;100514.38;4991089;28;20334;-88
2021/08/15 05:25:25;;;;;;;;;;;19.00;90.60;;;17.65;87.15;100506.22;5009845;28;19930;-88
2021/08/15 05:27:53;;;;;;;;;;;19.10;90.00;;;17.68;87.69;100508.53;5016076;28;19999;-87
2021/08/15 05:30:20;;;;;;;;;;;19.20;89.90;;;17.74;87.69;100508.47;5011504;28;19932;-89
2021/08/15 05:32:47;;;;;;;;;;;19.30;89.50;;;17.75;88.27;100498.28;5029552;28;19932;-88
2021/08/15 05:35:14;;;;;;;;;;;19.40;89.70;;;17.80;88.20;100495.69;5027289;28;19929;-88
2021/08/15 05:37:41;;;;;;;;;;;19.50;89.60;;;17.84;88.82;100502.44;5027789;28;19991;-88
2021/08/15 05:40:09;;;;;;;;;;;19.50;89.50;;;17.89;88.73;100505.28;5010419;28;19979;-87
2021/08/15 05:42:36;;;;;;;;;;;19.70;89.50;;;17.95;88.31;100498.00;5028702;28;19936;-87
2021/08/15 05:45:06;;;;;;;;;;;19.80;88.50;;;18.00;88.50;100500.09;5010836;28;19983;-87
2021/08/15 05:47:33;;;;;;;;;;;19.90;88.70;;;18.06;88.52;100491.72;5027861;28;19925;-87
2021/08/15 05:50:00;;;;;;;;;;;20.00;88.50;;;18.12;88.63;100487.19;5029345;28;20023;-87
2021/08/15 05:52:27;;;;;;;;;;;20.10;88.40;;;18.17;88.52;100490.91;5029276;28;20010;-87
2021/08/15 05:54:54;;;;;;;;;;;20.10;88.10;;;18.20;88.65;100489.63;5029245;28;19929;-88
2021/08/15 05:57:22;;;;;;;;;;;20.10;88.40;;;18.24;87.99;100490.81;5028141;28;19983;-88
2021/08/15 05:59:49;;;;;;;;;;;20.10;87.90;;;18.26;87.71;100491.41;4992472;28;19929;-89
2021/08/15 06:02:17;;;;;;;;;;;20.00;87.80;;;18.28;87.61;100488.44;4991604;28;20464;-88
2021/08/15 06:04:44;;;;;;;;;;;20.00;87.80;;;18.30;88.21;100484.34;4991658;28;19933;-88
2021/08/15 06:07:13;;;;;;;;;;;20.10;88.50;;;18.33;87.45;100488.53;4991343;28;20021;-88
2021/08/15 06:09:40;;;;;;;;;;;20.10;87.80;;;18.38;87.60;100479.59;4991610;28;20471;-87
2021/08/15 06:12:08;;;;;;;;;;;20.20;87.70;;;18.41;87.18;100479.09;5009298;28;20087;-88
2021/08/15 06:14:35;;;;;;;;;;;20.20;87.20;;;18.44;87.16;100473.94;4991735;28;19972;-87
2021/08/15 06:17:02;;;;;;;;;;;20.40;87.10;;;18.47;87.49;100479.00;5009075;28;19968;-87
2021/08/15 06:19:31;;;;;;;;;;;20.40;87.30;;;18.50;87.55;100466.66;5009454;28;19933;-87
2021/08/15 06:21:58;;;;;;;;;;;20.50;86.90;;;18.56;88.15;100465.69;5013325;28;20020;-88
2021/08/15 06:24:25;;;;;;;;;;;20.70;86.80;;;18.62;87.27;100466.66;5008839;28;19929;-88
2021/08/15 06:26:52;;;;;;;;;;;20.80;85.60;;;18.69;87.31;100465.44;4993504;28;19936;-88
2021/08/15 06:29:20;;;;;;;;;;;21.20;84.90;;;18.78;87.08;100465.09;5028452;28;20003;-90
2021/08/15 06:31:47;;;;;;;;;;;21.50;83.20;;;18.82;86.41;100458.06;5027127;28;20441;-89
2021/08/15 06:34:14;;;;;;;;;;;21.60;82.30;;;18.88;86.57;100457.09;5010174;28;20488;-89
2021/08/15 06:36:42;;;;;;;;;;;21.70;82.50;;;18.94;85.95;100445.94;5032390;28;19932;-89
2021/08/15 06:39:09;;;;;;;;;;;22.00;81.30;;;19.05;85.75;100448.91;5014816;28;19933;-87
2021/08/15 06:41:37;;;;;;;;;;;22.10;80.80;;;19.13;85.09;100449.41;5032533;28;20024;-86
2021/08/15 06:44:04;;;;;;;;;;;22.30;79.60;;;19.22;85.18;100447.06;5014779;28;19925;-87
2021/08/15 06:46:31;;;;;;;;;;;22.50;79.40;;;19.29;84.91;100449.72;5032426;28;19971;-85
2021/08/15 06:48:58;;;;;;;;;;;22.70;78.80;;;19.36;84.95;100444.88;5031798;28;20377;-84
2021/08/15 06:51:25;;;;;;;;;;;22.80;78.50;;;19.45;84.79;100448.09;5032577;28;20032;-85
2021/08/15 06:53:54;;;;;;;;;;;22.90;78.30;;;19.55;85.31;100451.06;5025692;28;19964;-86
2021/08/15 06:56:21;;;;;;;;;;;23.00;78.50;;;19.66;84.08;100447.41;4994684;28;20024;-85
2021/08/15 06:58:49;;;;;;;;;;;23.10;77.60;;;19.72;83.29;100451.13;5012401;28;19984;-85
2021/08/15 07:01:16;;;;;;;;;;;23.00;77.20;;;19.75;82.58;100453.41;5012382;28;19937;-85
2021/08/15 07:03:43;;;;;;;;;;;23.00;77.20;;;19.80;84.17;100452.66;5015916;28;20461;-85
2021/08/15 07:06:11;;;;;;;;;;;23.00;78.10;;;19.81;84.10;100444.13;5031885;28;20207;-85
2021/08/15 07:08:38;;;;;;;;;;;22.90;78.70;;;19.84;83.65;100445.59;5032040;28;19929;-86
2021/08/15 07:11:06;;;;;;;;;;;22.80;78.60;;;19.85;81.89;100447.25;5001842;28;20043;-87
2021/08/15 07:13:33;;;;;;;;;;;22.80;77.50;;;19.86;82.08;100447.00;5012349;28;19932;-89
2021/08/15 07:16:02;;;;;;;;;;;22.80;78.00;;;19.92;82.34;100440.47;5012013;28;20062;-88
2021/08/15 07:18:30;;;;;;;;;;;22.90;78.20;;;19.99;81.19;100445.00;4994745;28;20011;-87
2021/08/15 07:21:00;;;;;;;;;;;22.90;77.40;;;20.06;82.87;100437.41;5011857;28;19933;-87
2021/08/15 07:23:27;;;;;;;;;;;23.00;78.20;;;20.13;82.12;100440.00;4992918;28;20378;-86
2021/08/15 07:25:54;;;;;;;;;;;23.10;77.80;;;20.15;80.41;100449.72;5011698;28;20047;-87
2021/08/15 07:28:23;;;;;;;;;;;23.10;77.00;;;20.21;81.02;100445.94;5011607;28;19929;-87
2021/08/15 07:30:50;;;;;;;;;;;23.20;77.30;;;20.23;80.49;100441.00;5012328;28;20176;-87
2021/08/15 07:33:17;;;;;;;;;;;23.20;76.80;;;20.26;80.97;100431.41;5011947;28;20026;-86
2021/08/15 07:35:44;;;;;;;;;;;23.20;77.10;;;20.27;81.32;100436.66;5019153;28;19933;-84
2021/08/15 07:38:11;;;;;;;;;;;23.20;77.30;;;20.36;82.88;100437.06;5013470;28;19929;-84
2021/08/15 07:40:38;;;;;;;;;;;23.20;78.00;;;20.46;83.04;100437.22;5013542;28;19936;-84
2021/08/15 07:43:05;;;;;;;;;;;23.30;78.30;;;20.47;81.46;100435.31;5017892;28;20264;-84
2021/08/15 07:45:34;;;;;;;;;;;23.30;77.40;;;20.51;81.57;100437.31;5011342;28;19925;-84
2021/08/15 07:48:02;;;;;;;;;;;23.30;77.40;;;20.57;81.11;100434.63;5010727;28;19961;-80
2021/08/15 07:50:36;;;;;;;;;;;23.30;77.40;;;20.62;82.52;100437.50;5011799;28;20056;-81
2021/08/15 07:53:15;;;;;;;;;;;23.30;78.30;;;20.57;80.36;100426.34;4994278;28;19976;-81
2021/08/15 07:55:43;;;;;;;;;;;23.20;77.60;;;20.54;80.55;100424.06;5011796;28;20028;-85
2021/08/15 07:58:10;;;;;;;;;;;23.20;77.70;;;20.52;80.50;100429.84;5011379;28;20028;-86
2021/08/15 08:00:38;;;;;;;;;;;23.10;77.70;;;20.50;80.34;100430.13;5011551;28;20027;-86
2021/08/15 08:03:05;;;;;;;;;;;23.10;77.60;;;20.48;80.51;100425.94;5011652;28;19975;-86
2021/08/15 08:05:33;;;;;;;;;;;23.00;78.00;;;20.47;80.62;100429.78;5011456;28;19957;-85
2021/08/15 08:08:00;;;;;;;;;;;23.10;78.40;;;20.47;80.84;100413.22;4993385;28;20582;-86
2021/08/15 08:10:27;;;;;;;;;;;23.10;78.20;;;20.55;82.59;100415.53;5012368;28;19930;-86
2021/08/15 08:12:54;;;;;;;;;;;23.10;78.90;;;20.62;81.39;100426.44;5011360;28;19983;-88
2021/08/15 08:15:21;;;;;;;;;;;23.20;78.30;;;20.67;82.24;100413.53;5011210;28;20577;-88
2021/08/15 08:17:50;;;;;;;;;;;23.30;78.70;;;20.74;81.67;100407.00;5010929;28;19929;-88
2021/08/15 08:20:18;;;;;;;;;;;23.40;78.00;;;20.77;81.02;100415.63;5011316;28;20454;-88
2021/08/15 08:22:45;;;;;;;;;;;23.40;77.70;;;20.76;78.97;100402.03;5011225;28;19926;-85
2021/08/15 08:25:13;;;;;;;;;;;23.40;77.30;;;20.74;80.30;100413.34;5011266;28;19940;-90
2021/08/15 08:27:40;;;;;;;;;;;23.50;77.50;;;20.76;83.28;100404.81;5010708;28;19965;-88
2021/08/15 08:30:08;;;;;;;;;;;23.50;78.20;;;20.91;84.55;100413.31;5011108;28;20317;-90
2021/08/15 08:32:35;;;;;;;;;;;23.70;79.10;;;21.11;83.90;100395.31;5025642;28;19968;-89
2021/08/15 08:35:04;;;;;;;;;;;23.90;78.00;;;21.18;79.52;100401.47;5028120;28;19929;-89
2021/08/15 08:37:31;;;;;;;;;;;24.00;75.50;;;21.26;81.77;100393.53;5013209;28;19930;-90
2021/08/15 08:40:00;;;;;;;;;;;24.10;77.10;;;21.22;80.53;100397.09;5010913;28;20028;-89
2021/08/15 08:42:29;;;;;;;;;;;24.20;76.00;;;21.20;79.51;100410.38;5010699;28;19933;-87
2021/08/15 08:45:00;;;;;;;;;;;24.20;75.60;;;21.18;78.22;100407.03;5010792;28;19936;-86
2021/08/15 08:47:29;;;;;;;;;;;24.10;75.10;;;21.14;79.07;100408.63;4992457;28;20391;-86
2021/08/15 08:49:57;;;;;;;;;;;24.00;75.40;;;21.09;79.78;100404.72;5021264;28;20565;-87
2021/08/15 08:52:29;;;;;;;;;;;23.90;75.90;;;21.08;79.87;100389.19;5030249;28;20237;-86
2021/08/15 08:54:56;;;;;;;;;;;23.90;76.50;;;21.09;81.24;100390.88;5030413;28;19929;-87
2021/08/15 08:57:23;;;;;;;;;;;23.90;76.70;;;21.13;81.53;100393.94;5019026;28;19932;-87
2021/08/15 08:59:56;;;;;;;;;;;23.90;76.80;;;21.18;81.04;100401.47;4992765;28;20024;-87
2021/08/15 09:02:23;;;;;;;;;;;24.00;77.10;;;21.18;80.32;100401.47;5010491;28;19983;-87
2021/08/15 09:04:50;;;;;;;;;;;23.90;77.00;;;21.19;81.21;100409.53;5010424;28;20016;-86
2021/08/15 09:07:18;;;;;;;;;;;24.00;77.30;;;21.22;81.44;100402.63;5010086;28;19930;-86
2021/08/15 09:09:53;;;;;;;;;;;24.00;77.40;;;21.24;81.53;100394.91;5012568;28;19949;-86
2021/08/15 09:12:20;;;;;;;;;;;24.00;77.70;;;21.26;80.73;100387.19;5010324;28;19988;-87
2021/08/15 09:14:47;;;;;;;;;;;24.10;76.90;;;21.24;80.82;100389.38;5014882;28;19983;-87
2021/08/15 09:17:15;;;;;;;;;;;24.10;77.10;;;21.23;79.75;100388.53;5009817;28;20032;-86
2021/08/15 09:19:45;;;;;;;;;;;24.10;76.50;;;21.23;80.03;100383.00;5009994;28;19929;-90
2021/08/15 09:22:18;;;;;;;;;;;24.10;76.60;;;21.23;79.08;100387.72;5009947;28;20723;-89
2021/08/15 09:24:52;;;;;;;;;;;24.10;75.90;;;21.24;80.07;100387.44;5015951;28;19933;-88
2021/08/15 09:27:21;;;;;;;;;;;24.10;77.10;;;21.23;81.64;100382.19;5018210;28;19977;-89
2021/08/15 09:30:11;;;;;;;;;;;24.10;77.10;;;21.25;80.67;100391.06;5018014;28;19936;-89
2021/08/15 09:32:42;;;;;;;;;;;24.10;76.90;;;21.27;81.33;100388.88;5019125;28;20051;-86
2021/08/15 09:35:10;;;;;;;;;;;24.10;77.20;;;21.30;82.24;100388.34;5030081;28;19929;-86
2021/08/15 09:37:39;;;;;;;;;;;24.20;77.50;;;21.32;81.09;100372.28;5011726;28;21368;-84
2021/08/15 09:40:25;;;;;;;;;;;24.20;76.80;;;21.35;81.63;100380.09;5013729;28;20016;-84
2021/08/15 09:42:53;;;;;;;;;;;24.20;77.10;;;21.42;78.97;100385.44;5020092;28;20032;-86
2021/08/15 09:45:36;;;;;;;;;;;24.20;75.50;;;21.50;79.80;100375.88;4998029;28;20047;-81
2021/08/15 09:48:36;;;;;;;;;;;24.30;75.60;;;21.59;79.19;100380.66;5016567;28;19933;-82
2021/08/15 09:51:09;;;;;;;;;;;24.30;75.80;;;21.65;80.14;100376.84;4946323;28;19937;-82
2021/08/15 09:53:39;;;;;;;;;;;24.40;75.90;;;21.66;79.03;100372.13;5003493;28;19957;-82
2021/08/15 09:56:08;;;;;;;;;;;24.50;75.30;;;21.70;78.82;100373.28;5010112;28;19973;-82
2021/08/15 09:58:35;;;;;;;;;;;24.50;75.00;;;21.75;76.21;100376.09;5024527;28;19926;-82
2021/08/15 10:01:05;;;;;;;;;;;24.50;74.50;;;21.76;75.74;100365.84;5025621;28;20024;-82
2021/08/15 10:03:32;;;;;;;;;;;24.50;73.50;;;21.80;78.71;100364.22;5010124;28;19940;-82
2021/08/15 10:06:00;;;;;;;;;;;24.50;75.20;;;21.79;78.71;100371.72;5019710;28;20024;-82
2021/08/15 10:08:28;;;;;;;;;;;24.50;75.30;;;21.81;77.80;100366.75;5028091;28;20020;-82
2021/08/15 10:10:55;;;;;;;;;;;24.50;74.90;;;21.83;77.43;100366.47;5016278;28;20024;-82
2021/08/15 10:13:24;;;;;;;;;;;24.50;74.70;;;21.88;75.49;100365.72;5024542;28;19967;-89
2021/08/15 10:15:58;;;;;;;;;;;24.50;73.90;;;21.86;77.31;100358.47;5019317;28;20011;-89
2021/08/15 10:18:27;;;;;;;;;;;24.50;75.00;;;21.86;78.68;100364.03;5004953;28;20015;-88
2021/08/15 10:21:08;;;;;;;;;;;24.40;76.00;;;21.86;77.17;100358.47;5012447;28;20630;-90
2021/08/15 10:23:38;;;;;;;;;;;24.50;74.90;;;21.90;78.56;100352.44;5011031;28;20352;-89
2021/08/15 10:26:28;;;;;;;;;;;24.60;75.50;;;21.90;77.43;100352.44;5019462;28;19956;-85
2021/08/15 10:28:57;;;;;;;;;;;24.60;75.00;;;21.98;78.44;100355.53;5026035;28;19968;-89
2021/08/15 10:31:24;;;;;;;;;;;24.60;75.70;;;21.98;77.53;100361.06;5022953;28;19929;-89
2021/08/15 10:33:55;;;;;;;;;;;24.60;75.20;;;22.02;77.70;100350.28;5018965;28;20011;-90
2021/08/15 10:36:27;;;;;;;;;;;24.60;74.90;;;22.15;79.07;100352.63;5028716;28;20066;-90
2021/08/15 10:38:57;;;;;;;;;;;24.70;75.80;;;22.10;77.79;100355.34;5011271;28;19925;-90
2021/08/15 10:41:53;;;;;;;;;;;24.70;74.90;;;22.07;80.44;100347.56;5002976;28;20020;-90
2021/08/15 10:44:23;;;;;;;;;;;24.70;74.60;;;22.10;79.13;100335.94;5004269;28;19965;-91
2021/08/15 10:47:16;;;;;;;;;;;24.70;75.60;;;22.09;78.75;100345.38;5012049;28;19929;-91
2021/08/15 10:50:02;;;;;;;;;;;24.70;75.20;;;22.10;77.47;100337.88;5020217;28;20011;-90
2021/08/15 10:52:34;;;;;;;;;;;24.80;74.60;;;22.17;78.20;100335.72;5023178;28;20007;-90
2021/08/15 10:55:03;;;;;;;;;;;24.80;74.70;;;22.23;77.79;100340.19;5012166;28;19964;-91
2021/08/15 10:57:48;;;;;;;;;;;24.80;74.20;;;22.39;77.63;100330.06;5027911;28;20424;-90
2021/08/15 11:00:45;;;;;;;;;;;24.90;75.70;;;22.42;76.97;100326.75;5020629;28;19925;-86
2021/08/15 11:03:38;;;;;;;;;;;25.00;74.30;;;22.53;74.52;100320.16;5012738;28;19984;-87
2021/08/15 11:06:26;;;;;;;;;;;25.00;73.10;;;22.53;76.52;100331.25;5017026;28;20388;-86
2021/08/15 11:08:55;;;;;;;;;;;25.00;74.70;;;22.54;76.13;100329.31;5006750;28;19933;-87
2021/08/15 11:11:26;;;;;;;;;;;25.00;74.10;;;22.53;75.99;100320.16;5014277;28;20018;-87
2021/08/15 11:14:29;;;;;;;;;;;24.90;74.00;;;22.55;74.02;100320.72;5027698;28;19939;-87
2021/08/15 11:17:11;;;;;;;;;;;24.90;73.70;;;22.53;74.64;100317.41;5012631;28;19957;-87